Orlando, Florida
Traffic Map
Current Weather Conditions
Orlando, Florida
Few Clouds
Few Clouds
28°
Feels Like: 30°
Wind Chill: 28° Ceiling: Unl
Heat Index: 30° Visibility: 10mi
Dew Point: 22° Wind: 15mph
Humidity: 69% Direction: 80° (E)
Pressure: 30.15in Gusts: 23mph
Raw Report DataKORL 242253Z 08013G20KT 10SM FEW027 FEW034 28/22 A3015 RMK AO2 SLP213 T02780217
Traffic Incident Summary
Active as of:
Severity:
Category:
InformationThere was an issue retrieving the traffic information for this location. Please try a different location or try again shortly.
Advertisements
Track Severe Weather on mobile